Latest Weather Observations for Marble Bar

IDW60801

Issued at 8:23 am WST Thursday 21 June 2018 (issued every 10 minutes, with the page automatically refreshed every 10 minutes)

About weather observations | Map of weather stations | Latest weather observations for WA | Other Formats
Station Details ID: 004106 Name: MARBLE BAR Lat: -21.18 Lon: 119.75 Height: 182.3 m
Data from the previous 72 hours. | See also: Recent months at Marble Bar
Date/Time
WST
Temp
°C
App
Temp
°C
Dew
Point
°C
Rel
Hum
%
Delta-T
°C
Wind Press
QNH
hPa
Press
MSL
hPa
Rain since
9am
mm
Dir  Spd
km/h
Gust
km/h
Spd
kts
Gust
kts
21/08:00am 17.0 12.6 0.6 33 7.2 SSE 13 19 7 10 1024.3 1023.8 0.0
21/07:30am 15.8 12.2 0.4 35 6.7 SSE 9 15 5 8 1024.0 1023.4 0.0
21/07:00am 14.6 10.5 0.1 37 6.1 SSE 11 19 6 10 1023.7 1023.1 0.0
21/06:30am 13.8 10.1 0.1 39 5.8 SSE 9 13 5 7 1023.6 1023.0 0.0
21/06:00am 14.6 10.9 -0.3 36 6.3 SSE 9 13 5 7 1023.2 1022.7 0.0
21/05:30am 14.9 10.8 0.0 36 6.3 SSE 11 15 6 8 1023.0 1022.5 0.0
21/05:00am 14.1 10.5 0.4 39 5.8 SSE 9 13 5 7 1023.0 1022.5 0.0
21/04:30am 14.1 11.0 0.0 38 6.0 SSE 6 7 3 4 1023.0 1022.5 0.0
21/04:00am 14.8 11.5 -0.1 36 6.3 SSE 7 11 4 6 1023.1 1022.6 0.0
21/03:30am 15.5 11.4 -0.3 34 6.7 SE 11 15 6 8 1023.0 1022.5 0.0
21/03:00am 16.0 11.5 -0.2 33 6.9 SE 13 17 7 9 1022.9 1022.4 0.0
21/02:30am 16.5 12.1 0.2 33 7.1 SE 13 19 7 10 1022.8 1022.3 0.0
21/02:00am 16.6 12.3 0.7 34 7.0 SE 13 17 7 9 1022.9 1022.4 0.0
21/01:30am 16.6 12.4 1.5 36 6.7 SE 13 17 7 9 1023.1 1022.6 0.0
21/01:00am 16.1 12.5 2.9 41 6.0 SE 11 13 6 7 1023.2 1022.7 0.0
21/12:30am 16.3 12.8 3.7 43 5.9 SE 11 13 6 7 1023.2 1022.7 0.0
21/12:00am 16.2 13.2 3.9 44 5.7 SE 9 13 5 7 1023.3 1022.8 0.0
 
Date/Time
WST
Temp
°C
App
Temp
°C
Dew
Point
°C
Rel
Hum
%
Delta-T
°C
Wind Press
QNH
hPa
Press
MSL
hPa
Rain since
9am
mm
Dir  Spd
km/h
Gust
km/h
Spd
kts
Gust
kts
20/11:30pm 16.6 13.6 4.0 43 5.9 SE 9 11 5 6 1023.1 1022.6 0.0
20/11:00pm 17.0 14.0 4.3 43 6.0 SE 9 11 5 6 1023.1 1022.6 0.0
20/10:30pm 17.4 14.1 4.4 42 6.2 SE 11 13 6 7 1023.1 1022.6 0.0
20/10:00pm 17.3 14.4 4.9 44 5.9 SE 9 11 5 6 1023.1 1022.6 0.0
20/09:30pm 17.6 14.7 4.9 43 6.1 SE 9 11 5 6 1022.9 1022.4 0.0
20/09:00pm 18.3 15.4 4.8 41 6.5 SE 9 11 5 6 1022.8 1022.3 0.0
20/08:30pm 19.1 15.8 4.8 39 7.0 SE 11 13 6 7 1022.7 1022.2 0.0
20/08:00pm 18.9 16.2 5.7 42 6.5 SE 9 13 5 7 1022.5 1022.0 0.0
20/07:30pm 18.4 16.2 6.3 45 6.0 SE 7 9 4 5 1022.2 1021.7 0.0
20/07:00pm 19.1 16.9 6.2 43 6.4 SE 7 9 4 5 1021.8 1021.3 0.0
20/06:30pm 20.6 17.9 5.4 37 7.6 ESE 9 11 5 6 1021.5 1021.0 0.0
20/06:00pm 21.4 19.0 5.3 35 8.0 SE 7 9 4 5 1021.2 1020.7 0.0
20/05:30pm 22.9 20.0 4.9 31 9.0 SE 9 13 5 7 1020.8 1020.3 0.0
20/05:00pm 24.0 19.9 4.4 28 9.8 ESE 15 20 8 11 1020.6 1020.1 0.0
20/04:30pm 24.3 20.6 4.6 28 9.9 ESE 13 19 7 10 1020.4 1019.9 0.0
20/04:00pm 24.7 20.3 4.5 27 10.1 ESE 17 26 9 14 1020.3 1019.8 0.0
20/03:30pm 25.6 21.2 4.7 26 10.6 SE 17 24 9 13 1020.2 1019.7 0.0
20/03:00pm 25.9 21.5 4.9 26 10.7 ESE 17 28 9 15 1020.2 1019.7 0.0
20/02:30pm 25.6 20.8 4.7 26 10.6 ESE 19 32 10 17 1020.4 1019.9 0.0
20/02:00pm 25.6 20.8 4.7 26 10.6 ESE 19 30 10 16 1020.7 1020.2 0.0
20/01:30pm 25.1 20.2 4.3 26 10.5 ESE 19 28 10 15 1020.9 1020.4 0.0
20/01:00pm 24.2 19.3 4.0 27 10.0 ESE 19 28 10 15 1021.3 1020.8 0.0
20/12:30pm 24.5 19.4 4.3 27 10.1 ESE 20 32 11 17 1021.7 1021.2 0.0
20/12:00pm 24.2 18.7 4.0 27 10.0 ESE 22 35 12 19 1022.1 1021.6 0.0
20/11:30am 24.5 19.4 4.3 27 10.1 ESE 20 30 11 16 1022.6 1022.1 0.0
20/11:00am 23.7 17.6 4.6 29 9.5 SE 26 37 14 20 1023.1 1022.6 0.0
20/10:30am 22.7 16.5 4.2 30 9.1 ESE 26 35 14 19 1023.6 1023.0 0.0
20/10:00am 22.2 16.1 4.7 32 8.7 ESE 26 39 14 21 1023.9 1023.3 0.0
20/09:30am 21.3 14.4 4.8 34 8.2 ESE 30 41 16 22 1023.9 1023.3 0.0
20/09:00am 20.9 14.6 5.7 37 7.6 ESE 28 39 15 21 1023.9 1023.3 0.0
20/08:30am 20.7 15.4 7.0 41 7.0 ESE 24 37 13 20 1023.7 1023.1 0.0
20/08:00am 20.0 15.6 7.4 44 6.5 ESE 20 30 11 16 1023.7 1023.1 0.0
20/07:30am 20.1 16.6 7.1 43 6.7 SE 15 22 8 12 1023.3 1022.8 0.0
20/07:00am 18.4 15.8 6.3 45 6.0 SE 9 13 5 7 1023.0 1022.5 0.0
20/06:30am 18.9 14.9 6.7 45 6.2 ESE 17 24 9 13 1022.6 1022.1 0.0
20/06:00am 19.4 15.5 5.5 40 6.9 ESE 15 24 8 13 1022.3 1021.8 0.0
20/05:30am 19.7 14.9 4.6 37 7.4 ESE 19 28 10 15 1022.2 1021.7 0.0
20/05:00am 18.2 15.0 5.1 42 6.4 SE 11 17 6 9 1022.1 1021.6 0.0
20/04:30am 16.4 15.4 7.3 55 4.6 SSE 2 2 1 1 1022.1 1021.6 0.0
20/04:00am 17.4 15.6 5.4 45 5.8 SE 4 6 2 3 1021.9 1021.4 0.0
20/03:30am 17.5 15.4 5.8 46 5.7 SE 6 7 3 4 1021.4 1020.9 0.0
20/03:00am 18.0 15.9 5.6 44 6.1 SE 6 7 3 4 1021.6 1021.1 0.0
20/02:30am 18.6 16.2 5.1 41 6.6 ESE 7 9 4 5 1021.6 1021.1 0.0
20/02:00am 19.4 17.0 4.4 37 7.2 E 6 7 3 4 1021.8 1021.3 0.0
20/01:30am 19.8 17.5 4.7 37 7.4 ESE 6 7 3 4 1021.6 1021.1 0.0
20/01:00am 20.1 18.5 4.6 36 7.5 E 2 4 1 2 1021.8 1021.3 0.0
20/12:30am 20.4 18.6 3.6 33 8.1 ESE 2 4 1 2 1021.7 1021.2 0.0
20/12:00am 20.1 17.6 3.8 34 7.8 ESE 6 7 3 4 1021.8 1021.3 0.0
 
Date/Time
WST
Temp
°C
App
Temp
°C
Dew
Point
°C
Rel
Hum
%
Delta-T
°C
Wind Press
QNH
hPa
Press
MSL
hPa
Rain since
9am
mm
Dir  Spd
km/h
Gust
km/h
Spd
kts
Gust
kts
19/11:30pm 18.4 16.7 7.5 49 5.6 SE 6 7 3 4 1021.7 1021.2 0.0
19/11:00pm 17.6 16.0 7.9 53 5.0 SE 6 6 3 3 1021.7 1021.2 0.0
19/10:30pm 18.1 16.7 5.7 44 6.1 SE 2 6 1 3 1021.6 1021.1 0.0
19/10:00pm 19.1 18.3 6.6 44 6.3 CALM 0 0 0 0 1021.7 1021.2 0.0
19/09:30pm 20.7 19.3 3.4 32 8.3 CALM 0 0 0 0 1021.6 1021.1 0.0
19/09:00pm 21.4 18.8 3.1 30 8.7 SE 6 7 3 4 1021.5 1021.0 0.0
19/08:30pm 21.4 18.6 3.1 30 8.8 SE 7 9 4 5 1021.4 1020.9 0.0
19/08:00pm 21.8 18.9 2.5 28 9.1 SE 7 9 4 5 1021.4 1020.9 0.0
19/07:30pm 21.8 18.5 2.5 28 9.2 SSE 9 11 5 6 1021.1 1020.6 0.0
19/07:00pm 21.6 18.6 2.3 28 9.1 SSE 7 9 4 5 1020.8 1020.3 0.0
19/06:30pm 23.2 19.0 1.5 24 10.2 SE 13 17 7 9 1020.4 1019.9 0.0
19/06:00pm 23.4 20.4 1.7 24 10.2 SE 7 11 4 6 1020.1 1019.6 0.0
19/05:30pm 24.2 21.0 0.5 21 11.0 SE 7 9 4 5 1019.8 1019.3 0.0
19/05:00pm 25.5 20.6 -0.5 18 12.0 SE 15 20 8 11 1019.5 1019.0 0.0
19/04:30pm 26.0 21.3 -1.7 16 12.6 ESE 13 19 7 10 1019.2 1018.6 0.0
19/04:00pm 26.3 20.9 -1.5 16 12.6 ESE 17 28 9 15 1019.1 1018.5 0.0
19/03:30pm 26.7 22.1 -1.2 16 12.8 ESE 13 19 7 10 1018.9 1018.3 0.0
19/03:00pm 26.6 22.3 -1.3 16 12.8 E 11 20 6 11 1018.8 1018.2 0.0
19/02:30pm 26.8 22.2 -1.1 16 12.9 ESE 13 17 7 9 1018.9 1018.3 0.0
19/02:00pm 26.6 22.3 -1.3 16 12.8 SE 11 19 6 10 1018.9 1018.3 0.0
19/01:30pm 26.5 22.2 -1.3 16 12.7 E 11 17 6 9 1018.8 1018.2 0.0
19/01:00pm 25.4 21.1 -1.4 17 12.1 ENE 11 19 6 10 1018.8 1018.2 0.0
19/12:30pm 25.4 20.8 -1.4 17 12.2 E 13 19 7 10 1019.2 1018.6 0.0
19/12:00pm 25.5 20.6 -0.5 18 12.0 E 15 22 8 12 1019.9 1019.4 0.0
19/11:30am 25.0 19.7 -0.9 18 11.8 E 17 22 9 12 1020.0 1019.5 0.0
19/11:00am 24.5 20.8 0.1 20 11.3 E 9 15 5 8 1021.2 1020.7 0.0
19/10:30am 23.3 19.2 -0.2 21 10.7 E 11 15 6 8 1021.7 1021.2 0.0
19/10:00am 22.9 18.5 0.1 22 10.4 ESE 13 17 7 9 1021.9 1021.4 0.0
19/09:30am 22.4 18.8 0.3 23 10.1 ESE 9 13 5 7 1022.4 1021.9 0.0
19/09:00am 21.2 17.1 -0.1 24 9.5 ESE 11 17 6 9 1022.2 1021.7 0.0
19/08:30am 20.4 17.2 0.8 27 8.9 SSE 7 11 4 6 1022.1 1021.6 0.0
19/08:00am 19.0 16.5 1.5 31 7.9 ESE 4 6 2 3 1021.7 1021.2 0.0
19/07:30am 17.4 15.8 4.7 43 6.1 SE 2 4 1 2 1021.6 1021.1 0.0
19/07:00am 16.3 15.0 5.9 50 5.1 S 2 6 1 3 1021.3 1020.8 0.0
19/06:30am 15.0 13.6 5.5 53 4.6 WNW 2 4 1 2 1021.0 1020.5 0.0
19/06:00am 15.3 13.5 5.2 51 4.8 NNE 4 4 2 2 1020.5 1020.0 0.0
19/05:30am 15.1 13.9 4.5 49 5.0 CALM 0 0 0 0 1020.3 1019.8 0.0
19/05:00am 14.5 13.2 3.9 49 4.9 CALM 0 0 0 0 1019.8 1019.3 0.0
19/04:30am 14.9 13.4 2.8 44 5.5 CALM 0 0 0 0 1019.8 1019.3 0.0
19/04:00am 13.8 12.4 3.6 50 4.6 CALM 0 0 0 0 1019.7 1019.2 0.0
19/03:30am 14.8 13.6 4.5 50 4.8 CALM 0 0 0 0 1019.5 1019.0 0.0
19/03:00am 15.1 13.0 3.9 47 5.2 ESE 4 6 2 3 1019.4 1018.9 0.0
19/02:30am 15.6 14.2 3.4 44 5.6 CALM 0 0 0 0 1019.4 1018.9 0.0
19/02:00am 16.7 15.1 2.3 38 6.5 CALM 0 0 0 0 1019.2 1018.6 0.0
19/01:30am 18.4 15.7 0.5 30 8.0 ESE 4 7 2 4 1019.2 1018.6 0.0
19/01:00am 18.3 15.2 0.4 30 7.9 SE 6 6 3 3 1019.4 1018.9 0.0
19/12:30am 18.5 15.5 0.6 30 8.0 SE 6 6 3 3 1019.3 1018.7 0.0
19/12:00am 18.7 16.8 0.8 30 8.0 CALM 0 6 0 3 1019.3 1018.7 0.0
 
Date/Time
WST
Temp
°C
App
Temp
°C
Dew
Point
°C
Rel
Hum
%
Delta-T
°C
Wind Press
QNH
hPa
Press
MSL
hPa
Rain since
9am
mm
Dir  Spd
km/h
Gust
km/h
Spd
kts
Gust
kts
18/11:30pm 19.4 16.8 0.9 29 8.4 ESE 4 6 2 3 1019.4 1018.9 0.0
18/11:00pm 19.3 17.8 3.1 34 7.6 CALM 0 0 0 0 1019.5 1019.0 0.0
18/10:30pm 19.3 17.0 2.6 33 7.8 ESE 4 7 2 4 1019.4 1018.9 0.0
18/10:00pm 20.3 18.1 1.2 28 8.7 ESE 2 4 1 2 1019.4 1018.9 0.0
18/09:30pm 20.4 17.9 1.8 29 8.6 E 4 6 2 3 1019.0 1018.4 0.0
18/09:00pm 20.9 18.8 1.7 28 8.9 ESE 2 6 1 3 1018.8 1018.2 0.0
18/08:30pm 21.1 18.4 2.4 29 8.8 SE 6 6 3 3 1018.8 1018.2 0.0
18/08:00pm 21.2 18.5 2.5 29 8.8 ESE 6 9 3 5 1018.6 1018.0 0.0
18/07:30pm 21.9 19.6 2.6 28 9.2 ESE 4 6 2 3 1018.2 1017.6 0.0
18/07:00pm 21.8 19.2 3.0 29 9.0 ESE 6 6 3 3 1018.0 1017.4 0.0
18/06:30pm 21.1 19.4 3.8 32 8.4 SE 2 6 1 3 1017.8 1017.2 0.0
18/06:00pm 22.4 20.5 3.0 28 9.3 E 2 4 1 2 1017.4 1016.9 0.0
18/05:30pm 23.9 21.0 1.5 23 10.6 E 6 9 3 5 1016.9 1016.4 0.0
18/05:00pm 25.6 22.6 1.0 20 11.7 ESE 6 9 3 5 1016.5 1016.0 0.0
18/04:30pm 26.8 23.6 0.5 18 12.5 ESE 7 11 4 6 1016.4 1015.9 0.0
18/04:00pm 27.1 23.0 0.0 17 12.8 ESE 11 15 6 8 1016.3 1015.8 0.0
18/03:30pm 27.4 23.4 0.2 17 12.9 E 11 19 6 10 1016.3 1015.8 0.0
18/03:00pm 27.4 24.1 0.2 17 12.9 SE 7 13 4 7 1016.3 1015.8 0.0
18/02:30pm 27.6 24.5 0.4 17 13.0 ESE 6 15 3 8 1016.4 1015.9 0.0
18/02:00pm 27.1 22.5 -0.9 16 13.0 ESE 13 20 7 11 1016.8 1016.3 0.0
18/01:30pm 27.3 23.1 -0.7 16 13.1 E 11 17 6 9 1016.8 1016.3 0.0
18/01:00pm 26.7 23.0 -0.3 17 12.6 ENE 9 17 5 9 1017.0 1016.5 0.0
18/12:30pm 26.3 21.7 -0.7 17 12.5 E 13 20 7 11 1017.4 1016.9 0.0
18/12:00pm 25.9 20.7 -0.2 18 12.1 ENE 17 32 9 17 1018.2 1017.6 0.0
18/11:30am 25.7 20.5 0.4 19 11.9 ENE 17 26 9 14 1018.8 1018.2 0.0
18/11:00am 24.6 19.0 0.2 20 11.3 ENE 19 28 10 15 1019.6 1019.1 0.0
18/10:30am 24.0 18.5 0.4 21 11.0 NE 19 26 10 14 1020.0 1019.5 0.0
18/10:00am 23.4 18.6 0.5 22 10.6 ENE 15 24 8 13 1020.5 1020.0 0.0
18/09:30am 22.1 17.4 0.6 24 9.9 ENE 15 22 8 12 1020.8 1020.3 0.0
18/09:00am 20.6 15.8 0.4 26 9.1 E 15 19 8 10 1021.0 1020.5 0.0
18/08:30am 19.5 16.4 0.0 27 8.7 E 6 11 3 6 1020.9 1020.4 0.0

Other Formats:

Comma delimited format used in spreadsheet applications
http://www.bom.gov.au/fwo/IDW60801/IDW60801.95317.axf

JavaScript Object Notation format (JSON) in row-major order
http://www.bom.gov.au/fwo/IDW60801/IDW60801.95317.json